sensor_id;sensor_type;location;lat;lon;timestamp;P1;durP1;ratioP1;P2;durP2;ratioP2
14096;SDS011;7125;48.106;11.544;2023-02-13T00:00:34;34.70;;;16.50;;
14096;SDS011;7125;48.106;11.544;2023-02-13T00:03:10;30.03;;;16.70;;
14096;SDS011;7125;48.106;11.544;2023-02-13T00:05:38;30.77;;;17.10;;
14096;SDS011;7125;48.106;11.544;2023-02-13T00:08:18;36.50;;;17.70;;
14096;SDS011;7125;48.106;11.544;2023-02-13T00:11:13;27.70;;;16.13;;
14096;SDS011;7125;48.106;11.544;2023-02-13T00:14:04;30.70;;;17.33;;
14096;SDS011;7125;48.106;11.544;2023-02-13T00:16:58;42.67;;;17.50;;
14096;SDS011;7125;48.106;11.544;2023-02-13T00:19:30;34.20;;;18.03;;
14096;SDS011;7125;48.106;11.544;2023-02-13T00:22:04;32.97;;;17.93;;
14096;SDS011;7125;48.106;11.544;2023-02-13T00:24:57;47.07;;;18.93;;
14096;SDS011;7125;48.106;11.544;2023-02-13T00:31:01;43.77;;;18.00;;
14096;SDS011;7125;48.106;11.544;2023-02-13T00:34:07;38.73;;;19.17;;
14096;SDS011;7125;48.106;11.544;2023-02-13T00:36:53;37.10;;;18.33;;
14096;SDS011;7125;48.106;11.544;2023-02-13T00:39:59;41.50;;;18.03;;
14096;SDS011;7125;48.106;11.544;2023-02-13T00:42:34;33.23;;;18.90;;
14096;SDS011;7125;48.106;11.544;2023-02-13T00:45:25;38.83;;;20.47;;
14096;SDS011;7125;48.106;11.544;2023-02-13T00:47:59;40.03;;;19.43;;
14096;SDS011;7125;48.106;11.544;2023-02-13T00:51:32;39.93;;;19.63;;
14096;SDS011;7125;48.106;11.544;2023-02-13T00:54:17;44.07;;;20.33;;
14096;SDS011;7125;48.106;11.544;2023-02-13T00:57:07;28.20;;;17.87;;
14096;SDS011;7125;48.106;11.544;2023-02-13T01:00:04;37.80;;;19.87;;
14096;SDS011;7125;48.106;11.544;2023-02-13T01:03:02;39.07;;;20.57;;
14096;SDS011;7125;48.106;11.544;2023-02-13T01:05:39;32.27;;;19.17;;
14096;SDS011;7125;48.106;11.544;2023-02-13T01:08:30;39.10;;;21.90;;
14096;SDS011;7125;48.106;11.544;2023-02-13T01:11:17;37.90;;;19.60;;
14096;SDS011;7125;48.106;11.544;2023-02-13T01:17:05;42.33;;;21.07;;
14096;SDS011;7125;48.106;11.544;2023-02-13T01:19:42;43.63;;;20.57;;
14096;SDS011;7125;48.106;11.544;2023-02-13T01:22:39;40.73;;;20.87;;
14096;SDS011;7125;48.106;11.544;2023-02-13T01:25:33;44.20;;;20.43;;
14096;SDS011;7125;48.106;11.544;2023-02-13T01:28:11;47.67;;;20.60;;
14096;SDS011;7125;48.106;11.544;2023-02-13T01:30:45;41.07;;;22.13;;
14096;SDS011;7125;48.106;11.544;2023-02-13T01:33:47;54.47;;;22.83;;
14096;SDS011;7125;48.106;11.544;2023-02-13T01:36:28;36.63;;;22.07;;
14096;SDS011;7125;48.106;11.544;2023-02-13T01:39:05;49.93;;;23.23;;
14096;SDS011;7125;48.106;11.544;2023-02-13T01:41:44;41.97;;;21.73;;
14096;SDS011;7125;48.106;11.544;2023-02-13T01:44:53;36.57;;;19.20;;
14096;SDS011;7125;48.106;11.544;2023-02-13T01:47:27;43.03;;;23.20;;
14096;SDS011;7125;48.106;11.544;2023-02-13T01:50:14;44.83;;;23.67;;
14096;SDS011;7125;48.106;11.544;2023-02-13T01:53:16;33.97;;;19.60;;
14096;SDS011;7125;48.106;11.544;2023-02-13T01:56:01;52.63;;;22.80;;
14096;SDS011;7125;48.106;11.544;2023-02-13T01:58:36;52.53;;;23.70;;
14096;SDS011;7125;48.106;11.544;2023-02-13T02:01:17;44.53;;;21.70;;
14096;SDS011;7125;48.106;11.544;2023-02-13T02:03:59;47.70;;;23.00;;
14096;SDS011;7125;48.106;11.544;2023-02-13T02:06:41;37.67;;;22.17;;
14096;SDS011;7125;48.106;11.544;2023-02-13T02:09:41;35.00;;;20.37;;
14096;SDS011;7125;48.106;11.544;2023-02-13T02:12:21;32.47;;;19.93;;
14096;SDS011;7125;48.106;11.544;2023-02-13T02:14:56;36.67;;;22.17;;
14096;SDS011;7125;48.106;11.544;2023-02-13T02:17:35;39.17;;;20.83;;
14096;SDS011;7125;48.106;11.544;2023-02-13T02:20:13;37.40;;;21.53;;
14096;SDS011;7125;48.106;11.544;2023-02-13T02:33:14;36.63;;;20.03;;
14096;SDS011;7125;48.106;11.544;2023-02-13T02:36:01;30.20;;;17.73;;
14096;SDS011;7125;48.106;11.544;2023-02-13T02:38:49;31.70;;;19.93;;
14096;SDS011;7125;48.106;11.544;2023-02-13T02:41:50;27.60;;;18.60;;
14096;SDS011;7125;48.106;11.544;2023-02-13T02:44:30;31.53;;;20.93;;
14096;SDS011;7125;48.106;11.544;2023-02-13T02:47:14;34.50;;;21.37;;
14096;SDS011;7125;48.106;11.544;2023-02-13T02:50:17;33.57;;;20.03;;
14096;SDS011;7125;48.106;11.544;2023-02-13T02:53:07;34.50;;;19.67;;
14096;SDS011;7125;48.106;11.544;2023-02-13T02:56:19;26.40;;;17.67;;
14096;SDS011;7125;48.106;11.544;2023-02-13T02:59:20;30.27;;;19.63;;
14096;SDS011;7125;48.106;11.544;2023-02-13T03:02:23;24.37;;;16.70;;
14096;SDS011;7125;48.106;11.544;2023-02-13T03:05:33;25.17;;;16.93;;
14096;SDS011;7125;48.106;11.544;2023-02-13T03:08:27;22.43;;;15.17;;
14096;SDS011;7125;48.106;11.544;2023-02-13T03:11:41;22.53;;;15.73;;
14096;SDS011;7125;48.106;11.544;2023-02-13T03:14:43;23.23;;;15.77;;
14096;SDS011;7125;48.106;11.544;2023-02-13T03:17:33;23.17;;;16.07;;
14096;SDS011;7125;48.106;11.544;2023-02-13T03:20:47;25.03;;;16.70;;
14096;SDS011;7125;48.106;11.544;2023-02-13T03:23:45;21.67;;;15.93;;
14096;SDS011;7125;48.106;11.544;2023-02-13T03:29:20;23.10;;;14.47;;
14096;SDS011;7125;48.106;11.544;2023-02-13T03:32:19;21.67;;;15.17;;
14096;SDS011;7125;48.106;11.544;2023-02-13T03:34:53;19.90;;;14.00;;
14096;SDS011;7125;48.106;11.544;2023-02-13T03:38:00;21.00;;;14.67;;
14096;SDS011;7125;48.106;11.544;2023-02-13T03:40:35;20.50;;;15.23;;
14096;SDS011;7125;48.106;11.544;2023-02-13T03:43:27;18.23;;;14.03;;
14096;SDS011;7125;48.106;11.544;2023-02-13T03:45:57;23.47;;;15.00;;
14096;SDS011;7125;48.106;11.544;2023-02-13T03:48:27;21.50;;;14.50;;
14096;SDS011;7125;48.106;11.544;2023-02-13T03:51:15;24.57;;;16.17;;
14096;SDS011;7125;48.106;11.544;2023-02-13T03:53:49;23.57;;;15.40;;
14096;SDS011;7125;48.106;11.544;2023-02-13T03:56:20;24.10;;;15.20;;
14096;SDS011;7125;48.106;11.544;2023-02-13T03:59:07;24.80;;;16.03;;
14096;SDS011;7125;48.106;11.544;2023-02-13T04:01:47;21.57;;;16.20;;
14096;SDS011;7125;48.106;11.544;2023-02-13T04:04:24;19.87;;;14.70;;
14096;SDS011;7125;48.106;11.544;2023-02-13T04:06:56;19.07;;;13.70;;
14096;SDS011;7125;48.106;11.544;2023-02-13T04:09:30;17.50;;;13.30;;
14096;SDS011;7125;48.106;11.544;2023-02-13T04:12:01;18.07;;;13.87;;
14096;SDS011;7125;48.106;11.544;2023-02-13T04:14:35;22.37;;;13.83;;
14096;SDS011;7125;48.106;11.544;2023-02-13T04:17:06;21.30;;;14.77;;
14096;SDS011;7125;48.106;11.544;2023-02-13T04:19:39;21.60;;;14.40;;
14096;SDS011;7125;48.106;11.544;2023-02-13T04:22:06;18.43;;;14.20;;
14096;SDS011;7125;48.106;11.544;2023-02-13T04:24:37;20.77;;;14.80;;
14096;SDS011;7125;48.106;11.544;2023-02-13T04:27:11;21.73;;;15.47;;
14096;SDS011;7125;48.106;11.544;2023-02-13T04:29:40;20.47;;;14.90;;
14096;SDS011;7125;48.106;11.544;2023-02-13T04:32:11;25.40;;;15.30;;
14096;SDS011;7125;48.106;11.544;2023-02-13T04:34:41;24.83;;;16.60;;
14096;SDS011;7125;48.106;11.544;2023-02-13T04:37:09;23.30;;;15.70;;
14096;SDS011;7125;48.106;11.544;2023-02-13T04:39:43;22.63;;;15.80;;
14096;SDS011;7125;48.106;11.544;2023-02-13T04:42:11;28.17;;;17.77;;
14096;SDS011;7125;48.106;11.544;2023-02-13T04:44:39;21.10;;;16.27;;
14096;SDS011;7125;48.106;11.544;2023-02-13T04:47:11;27.43;;;17.57;;
14096;SDS011;7125;48.106;11.544;2023-02-13T04:49:42;24.37;;;16.63;;
14096;SDS011;7125;48.106;11.544;2023-02-13T04:52:10;24.93;;;16.27;;
14096;SDS011;7125;48.106;11.544;2023-02-13T04:57:24;25.47;;;17.80;;
14096;SDS011;7125;48.106;11.544;2023-02-13T04:59:57;24.20;;;17.03;;
14096;SDS011;7125;48.106;11.544;2023-02-13T05:02:25;29.20;;;18.23;;
14096;SDS011;7125;48.106;11.544;2023-02-13T05:04:58;22.70;;;16.50;;
14096;SDS011;7125;48.106;11.544;2023-02-13T05:07:28;24.03;;;16.63;;
14096;SDS011;7125;48.106;11.544;2023-02-13T05:10:02;25.77;;;18.20;;
14096;SDS011;7125;48.106;11.544;2023-02-13T05:12:33;26.13;;;19.07;;
14096;SDS011;7125;48.106;11.544;2023-02-13T05:15:04;24.33;;;17.67;;
14096;SDS011;7125;48.106;11.544;2023-02-13T05:17:34;26.13;;;17.97;;
14096;SDS011;7125;48.106;11.544;2023-02-13T05:20:02;26.80;;;18.73;;
14096;SDS011;7125;48.106;11.544;2023-02-13T05:22:42;22.77;;;16.73;;
14096;SDS011;7125;48.106;11.544;2023-02-13T05:25:29;23.30;;;19.00;;
14096;SDS011;7125;48.106;11.544;2023-02-13T05:28:07;24.97;;;18.57;;
14096;SDS011;7125;48.106;11.544;2023-02-13T05:30:58;25.20;;;18.87;;
14096;SDS011;7125;48.106;11.544;2023-02-13T05:33:26;27.60;;;18.43;;
14096;SDS011;7125;48.106;11.544;2023-02-13T05:35:58;24.43;;;18.90;;
14096;SDS011;7125;48.106;11.544;2023-02-13T05:38:54;28.53;;;19.47;;
14096;SDS011;7125;48.106;11.544;2023-02-13T05:41:26;25.07;;;18.27;;
14096;SDS011;7125;48.106;11.544;2023-02-13T05:44:16;25.37;;;18.83;;
14096;SDS011;7125;48.106;11.544;2023-02-13T05:47:01;28.87;;;18.07;;
14096;SDS011;7125;48.106;11.544;2023-02-13T05:49:44;26.63;;;20.03;;
14096;SDS011;7125;48.106;11.544;2023-02-13T05:52:22;27.37;;;18.03;;
14096;SDS011;7125;48.106;11.544;2023-02-13T05:55:01;25.80;;;18.37;;
14096;SDS011;7125;48.106;11.544;2023-02-13T06:01:09;34.10;;;18.87;;
14096;SDS011;7125;48.106;11.544;2023-02-13T06:03:47;28.20;;;20.03;;
14096;SDS011;7125;48.106;11.544;2023-02-13T06:06:22;27.00;;;19.67;;
14096;SDS011;7125;48.106;11.544;2023-02-13T06:09:05;28.50;;;20.30;;
14096;SDS011;7125;48.106;11.544;2023-02-13T06:11:55;30.17;;;19.53;;
14096;SDS011;7125;48.106;11.544;2023-02-13T06:14:41;31.63;;;20.90;;
14096;SDS011;7125;48.106;11.544;2023-02-13T06:17:40;28.53;;;20.33;;
14096;SDS011;7125;48.106;11.544;2023-02-13T06:20:22;31.13;;;21.27;;
14096;SDS011;7125;48.106;11.544;2023-02-13T06:22:58;28.47;;;20.33;;
14096;SDS011;7125;48.106;11.544;2023-02-13T06:25:25;28.07;;;19.63;;
14096;SDS011;7125;48.106;11.544;2023-02-13T06:27:51;27.53;;;18.83;;
14096;SDS011;7125;48.106;11.544;2023-02-13T06:30:20;33.60;;;22.10;;
14096;SDS011;7125;48.106;11.544;2023-02-13T06:32:47;43.10;;;23.10;;
14096;SDS011;7125;48.106;11.544;2023-02-13T06:35:14;27.43;;;19.60;;
14096;SDS011;7125;48.106;11.544;2023-02-13T06:37:42;30.73;;;19.23;;
14096;SDS011;7125;48.106;11.544;2023-02-13T06:40:09;33.33;;;20.90;;
14096;SDS011;7125;48.106;11.544;2023-02-13T06:42:39;36.43;;;22.33;;
14096;SDS011;7125;48.106;11.544;2023-02-13T06:45:07;36.47;;;22.27;;
14096;SDS011;7125;48.106;11.544;2023-02-13T06:47:36;34.60;;;22.27;;
14096;SDS011;7125;48.106;11.544;2023-02-13T06:50:06;30.53;;;19.77;;
14096;SDS011;7125;48.106;11.544;2023-02-13T06:52:34;33.00;;;21.60;;
14096;SDS011;7125;48.106;11.544;2023-02-13T06:55:01;32.57;;;21.50;;
14096;SDS011;7125;48.106;11.544;2023-02-13T06:57:29;27.37;;;20.30;;
14096;SDS011;7125;48.106;11.544;2023-02-13T06:59:57;30.30;;;21.70;;
14096;SDS011;7125;48.106;11.544;2023-02-13T07:02:25;31.53;;;20.27;;
14096;SDS011;7125;48.106;11.544;2023-02-13T07:04:53;33.20;;;21.67;;
14096;SDS011;7125;48.106;11.544;2023-02-13T07:07:20;32.87;;;20.77;;
14096;SDS011;7125;48.106;11.544;2023-02-13T07:09:47;29.67;;;21.17;;
14096;SDS011;7125;48.106;11.544;2023-02-13T07:12:14;25.90;;;18.77;;
14096;SDS011;7125;48.106;11.544;2023-02-13T07:14:41;30.50;;;22.00;;
14096;SDS011;7125;48.106;11.544;2023-02-13T07:17:08;34.00;;;23.10;;
14096;SDS011;7125;48.106;11.544;2023-02-13T07:19:36;30.20;;;21.17;;
14096;SDS011;7125;48.106;11.544;2023-02-13T07:22:04;33.20;;;20.60;;
14096;SDS011;7125;48.106;11.544;2023-02-13T07:24:31;31.90;;;20.13;;
14096;SDS011;7125;48.106;11.544;2023-02-13T07:26:59;29.10;;;19.43;;
14096;SDS011;7125;48.106;11.544;2023-02-13T07:29:26;38.43;;;23.37;;
14096;SDS011;7125;48.106;11.544;2023-02-13T07:31:53;29.73;;;20.53;;
14096;SDS011;7125;48.106;11.544;2023-02-13T07:34:20;33.97;;;22.23;;
14096;SDS011;7125;48.106;11.544;2023-02-13T07:36:47;35.13;;;23.53;;
14096;SDS011;7125;48.106;11.544;2023-02-13T07:39:16;32.90;;;24.00;;
14096;SDS011;7125;48.106;11.544;2023-02-13T07:41:43;29.13;;;20.70;;
14096;SDS011;7125;48.106;11.544;2023-02-13T07:44:14;31.73;;;19.07;;
14096;SDS011;7125;48.106;11.544;2023-02-13T07:46:41;28.07;;;20.73;;
14096;SDS011;7125;48.106;11.544;2023-02-13T07:49:08;28.70;;;20.23;;
14096;SDS011;7125;48.106;11.544;2023-02-13T07:51:35;32.33;;;21.07;;
14096;SDS011;7125;48.106;11.544;2023-02-13T07:54:02;29.43;;;21.57;;
14096;SDS011;7125;48.106;11.544;2023-02-13T07:56:31;28.43;;;19.63;;
14096;SDS011;7125;48.106;11.544;2023-02-13T07:58:58;31.77;;;21.23;;
14096;SDS011;7125;48.106;11.544;2023-02-13T08:01:25;30.97;;;21.00;;
14096;SDS011;7125;48.106;11.544;2023-02-13T08:03:52;33.67;;;20.97;;
14096;SDS011;7125;48.106;11.544;2023-02-13T08:06:19;32.03;;;22.00;;
14096;SDS011;7125;48.106;11.544;2023-02-13T08:08:47;31.57;;;21.40;;
14096;SDS011;7125;48.106;11.544;2023-02-13T08:11:35;29.90;;;22.00;;
14096;SDS011;7125;48.106;11.544;2023-02-13T08:14:19;36.23;;;23.30;;
14096;SDS011;7125;48.106;11.544;2023-02-13T08:16:47;29.37;;;21.00;;
14096;SDS011;7125;48.106;11.544;2023-02-13T08:19:15;30.70;;;21.03;;
14096;SDS011;7125;48.106;11.544;2023-02-13T08:21:42;33.17;;;21.57;;
14096;SDS011;7125;48.106;11.544;2023-02-13T08:24:09;30.23;;;19.97;;
14096;SDS011;7125;48.106;11.544;2023-02-13T08:26:38;27.90;;;20.63;;
14096;SDS011;7125;48.106;11.544;2023-02-13T08:29:05;27.83;;;21.57;;
14096;SDS011;7125;48.106;11.544;2023-02-13T08:31:33;29.90;;;20.07;;
14096;SDS011;7125;48.106;11.544;2023-02-13T08:34:00;27.77;;;20.73;;
14096;SDS011;7125;48.106;11.544;2023-02-13T08:36:27;30.83;;;22.07;;
14096;SDS011;7125;48.106;11.544;2023-02-13T08:38:54;31.90;;;21.97;;
14096;SDS011;7125;48.106;11.544;2023-02-13T08:41:21;29.60;;;21.27;;
14096;SDS011;7125;48.106;11.544;2023-02-13T08:43:50;31.50;;;20.60;;
14096;SDS011;7125;48.106;11.544;2023-02-13T08:46:18;31.03;;;21.83;;
14096;SDS011;7125;48.106;11.544;2023-02-13T08:48:45;35.73;;;21.93;;
14096;SDS011;7125;48.106;11.544;2023-02-13T08:51:12;27.90;;;20.27;;
14096;SDS011;7125;48.106;11.544;2023-02-13T08:53:39;27.00;;;19.53;;
14096;SDS011;7125;48.106;11.544;2023-02-13T08:56:08;33.10;;;21.17;;
14096;SDS011;7125;48.106;11.544;2023-02-13T08:58:36;26.53;;;19.57;;
14096;SDS011;7125;48.106;11.544;2023-02-13T09:01:05;27.90;;;19.70;;
14096;SDS011;7125;48.106;11.544;2023-02-13T09:03:33;27.43;;;19.97;;
14096;SDS011;7125;48.106;11.544;2023-02-13T09:06:00;25.03;;;19.37;;
14096;SDS011;7125;48.106;11.544;2023-02-13T09:08:28;26.77;;;18.47;;
14096;SDS011;7125;48.106;11.544;2023-02-13T09:10:55;25.87;;;18.33;;
14096;SDS011;7125;48.106;11.544;2023-02-13T09:13:24;25.10;;;18.50;;
14096;SDS011;7125;48.106;11.544;2023-02-13T09:15:52;29.10;;;20.77;;
14096;SDS011;7125;48.106;11.544;2023-02-13T09:18:20;26.47;;;18.60;;
14096;SDS011;7125;48.106;11.544;2023-02-13T09:20:47;29.93;;;18.80;;
14096;SDS011;7125;48.106;11.544;2023-02-13T09:23:14;26.47;;;17.63;;
14096;SDS011;7125;48.106;11.544;2023-02-13T09:25:41;25.60;;;17.80;;
14096;SDS011;7125;48.106;11.544;2023-02-13T09:28:08;29.90;;;20.50;;
14096;SDS011;7125;48.106;11.544;2023-02-13T09:30:38;31.73;;;21.20;;
14096;SDS011;7125;48.106;11.544;2023-02-13T09:33:08;26.43;;;19.20;;
14096;SDS011;7125;48.106;11.544;2023-02-13T09:35:37;27.63;;;19.43;;
14096;SDS011;7125;48.106;11.544;2023-02-13T09:38:06;25.87;;;20.70;;
14096;SDS011;7125;48.106;11.544;2023-02-13T09:40:34;25.70;;;19.37;;
14096;SDS011;7125;48.106;11.544;2023-02-13T09:43:10;24.13;;;18.73;;
14096;SDS011;7125;48.106;11.544;2023-02-13T09:45:42;25.47;;;18.47;;
14096;SDS011;7125;48.106;11.544;2023-02-13T09:48:14;22.30;;;16.13;;
14096;SDS011;7125;48.106;11.544;2023-02-13T09:50:51;25.20;;;18.13;;
14096;SDS011;7125;48.106;11.544;2023-02-13T09:53:19;26.87;;;19.33;;
14096;SDS011;7125;48.106;11.544;2023-02-13T09:55:50;23.40;;;15.90;;
14096;SDS011;7125;48.106;11.544;2023-02-13T09:58:38;24.33;;;17.67;;
14096;SDS011;7125;48.106;11.544;2023-02-13T10:01:15;23.67;;;16.83;;
14096;SDS011;7125;48.106;11.544;2023-02-13T10:03:49;22.90;;;17.67;;
14096;SDS011;7125;48.106;11.544;2023-02-13T10:06:25;23.73;;;17.07;;
14096;SDS011;7125;48.106;11.544;2023-02-13T10:09:04;24.17;;;16.57;;
14096;SDS011;7125;48.106;11.544;2023-02-13T10:11:41;21.80;;;16.67;;
14096;SDS011;7125;48.106;11.544;2023-02-13T10:14:23;21.47;;;16.63;;
14096;SDS011;7125;48.106;11.544;2023-02-13T10:16:57;21.87;;;16.93;;
14096;SDS011;7125;48.106;11.544;2023-02-13T10:19:31;22.73;;;17.37;;
14096;SDS011;7125;48.106;11.544;2023-02-13T10:22:03;19.33;;;15.53;;
14096;SDS011;7125;48.106;11.544;2023-02-13T10:24:32;23.90;;;17.20;;
14096;SDS011;7125;48.106;11.544;2023-02-13T10:27:04;23.90;;;17.63;;
14096;SDS011;7125;48.106;11.544;2023-02-13T10:29:42;20.93;;;16.93;;
14096;SDS011;7125;48.106;11.544;2023-02-13T10:32:38;24.13;;;17.43;;
14096;SDS011;7125;48.106;11.544;2023-02-13T10:35:19;23.77;;;17.10;;
14096;SDS011;7125;48.106;11.544;2023-02-13T10:37:52;24.13;;;17.70;;
14096;SDS011;7125;48.106;11.544;2023-02-13T10:40:22;20.60;;;16.80;;
14096;SDS011;7125;48.106;11.544;2023-02-13T10:42:57;22.60;;;16.43;;
14096;SDS011;7125;48.106;11.544;2023-02-13T10:45:45;22.80;;;18.53;;
14096;SDS011;7125;48.106;11.544;2023-02-13T10:48:37;21.80;;;15.87;;
14096;SDS011;7125;48.106;11.544;2023-02-13T10:51:18;21.87;;;16.57;;
14096;SDS011;7125;48.106;11.544;2023-02-13T10:53:55;25.27;;;17.07;;
14096;SDS011;7125;48.106;11.544;2023-02-13T10:56:35;22.90;;;18.10;;
14096;SDS011;7125;48.106;11.544;2023-02-13T10:59:14;21.97;;;17.53;;
14096;SDS011;7125;48.106;11.544;2023-02-13T11:01:55;24.20;;;17.87;;
14096;SDS011;7125;48.106;11.544;2023-02-13T11:04:28;23.53;;;18.27;;
14096;SDS011;7125;48.106;11.544;2023-02-13T11:06:56;30.97;;;18.40;;
14096;SDS011;7125;48.106;11.544;2023-02-13T11:09:29;27.63;;;19.23;;
14096;SDS011;7125;48.106;11.544;2023-02-13T11:14:52;27.57;;;20.17;;
14096;SDS011;7125;48.106;11.544;2023-02-13T11:17:20;25.87;;;19.57;;
14096;SDS011;7125;48.106;11.544;2023-02-13T11:19:49;24.10;;;17.93;;
14096;SDS011;7125;48.106;11.544;2023-02-13T11:22:25;25.90;;;18.53;;
14096;SDS011;7125;48.106;11.544;2023-02-13T11:24:58;29.23;;;21.07;;
14096;SDS011;7125;48.106;11.544;2023-02-13T11:27:29;25.33;;;21.00;;
14096;SDS011;7125;48.106;11.544;2023-02-13T11:29:59;27.50;;;19.53;;
14096;SDS011;7125;48.106;11.544;2023-02-13T11:32:28;24.23;;;17.80;;
14096;SDS011;7125;48.106;11.544;2023-02-13T11:34:56;24.70;;;19.43;;
14096;SDS011;7125;48.106;11.544;2023-02-13T11:37:31;27.77;;;19.23;;
14096;SDS011;7125;48.106;11.544;2023-02-13T11:39:59;24.33;;;17.33;;
14096;SDS011;7125;48.106;11.544;2023-02-13T11:42:56;24.47;;;18.40;;
14096;SDS011;7125;48.106;11.544;2023-02-13T11:45:23;27.93;;;19.83;;
14096;SDS011;7125;48.106;11.544;2023-02-13T11:47:51;27.50;;;18.90;;
14096;SDS011;7125;48.106;11.544;2023-02-13T11:50:21;25.90;;;18.40;;
14096;SDS011;7125;48.106;11.544;2023-02-13T11:52:53;23.03;;;18.93;;
14096;SDS011;7125;48.106;11.544;2023-02-13T11:55:27;24.00;;;18.23;;
14096;SDS011;7125;48.106;11.544;2023-02-13T11:57:59;28.40;;;19.57;;
14096;SDS011;7125;48.106;11.544;2023-02-13T12:00:29;28.50;;;17.40;;
14096;SDS011;7125;48.106;11.544;2023-02-13T12:03:25;24.37;;;18.70;;
14096;SDS011;7125;48.106;11.544;2023-02-13T12:06:00;25.97;;;18.73;;
14096;SDS011;7125;48.106;11.544;2023-02-13T12:08:30;25.57;;;19.37;;
14096;SDS011;7125;48.106;11.544;2023-02-13T12:11:00;20.17;;;17.47;;
14096;SDS011;7125;48.106;11.544;2023-02-13T12:13:34;27.73;;;19.97;;
14096;SDS011;7125;48.106;11.544;2023-02-13T12:16:04;24.10;;;17.80;;
14096;SDS011;7125;48.106;11.544;2023-02-13T12:18:37;25.90;;;19.07;;
14096;SDS011;7125;48.106;11.544;2023-02-13T12:21:12;22.20;;;18.13;;
14096;SDS011;7125;48.106;11.544;2023-02-13T12:23:53;24.30;;;19.13;;
14096;SDS011;7125;48.106;11.544;2023-02-13T12:26:29;24.70;;;19.27;;
14096;SDS011;7125;48.106;11.544;2023-02-13T12:29:11;25.43;;;18.73;;
14096;SDS011;7125;48.106;11.544;2023-02-13T12:31:50;22.67;;;17.77;;
14096;SDS011;7125;48.106;11.544;2023-02-13T12:34:49;20.30;;;16.73;;
14096;SDS011;7125;48.106;11.544;2023-02-13T12:37:39;23.50;;;17.03;;
14096;SDS011;7125;48.106;11.544;2023-02-13T12:40:28;26.90;;;17.17;;
14096;SDS011;7125;48.106;11.544;2023-02-13T12:43:09;24.97;;;17.00;;
14096;SDS011;7125;48.106;11.544;2023-02-13T12:45:54;24.27;;;17.80;;
14096;SDS011;7125;48.106;11.544;2023-02-13T12:48:30;22.33;;;16.83;;
14096;SDS011;7125;48.106;11.544;2023-02-13T12:51:11;22.30;;;17.60;;
14096;SDS011;7125;48.106;11.544;2023-02-13T12:56:58;24.97;;;19.53;;
14096;SDS011;7125;48.106;11.544;2023-02-13T12:59:42;26.17;;;19.20;;
14096;SDS011;7125;48.106;11.544;2023-02-13T13:02:26;23.40;;;17.07;;
14096;SDS011;7125;48.106;11.544;2023-02-13T13:05:14;24.77;;;19.33;;
14096;SDS011;7125;48.106;11.544;2023-02-13T13:08:08;27.37;;;19.57;;
14096;SDS011;7125;48.106;11.544;2023-02-13T13:10:46;22.80;;;17.77;;
14096;SDS011;7125;48.106;11.544;2023-02-13T13:13:24;27.97;;;19.10;;
14096;SDS011;7125;48.106;11.544;2023-02-13T13:16:05;24.57;;;18.67;;
14096;SDS011;7125;48.106;11.544;2023-02-13T13:18:46;28.60;;;19.27;;
14096;SDS011;7125;48.106;11.544;2023-02-13T13:21:25;21.23;;;16.27;;
14096;SDS011;7125;48.106;11.544;2023-02-13T13:24:03;26.77;;;18.43;;
14096;SDS011;7125;48.106;11.544;2023-02-13T13:26:36;22.90;;;17.17;;
14096;SDS011;7125;48.106;11.544;2023-02-13T13:29:08;24.53;;;17.97;;
14096;SDS011;7125;48.106;11.544;2023-02-13T13:31:39;29.67;;;18.43;;
14096;SDS011;7125;48.106;11.544;2023-02-13T13:34:11;25.07;;;19.70;;
14096;SDS011;7125;48.106;11.544;2023-02-13T13:36:42;25.07;;;18.50;;
14096;SDS011;7125;48.106;11.544;2023-02-13T13:39:16;22.47;;;19.20;;
14096;SDS011;7125;48.106;11.544;2023-02-13T13:41:53;23.77;;;17.83;;
14096;SDS011;7125;48.106;11.544;2023-02-13T13:44:35;27.50;;;17.53;;
14096;SDS011;7125;48.106;11.544;2023-02-13T13:47:18;24.60;;;18.40;;
14096;SDS011;7125;48.106;11.544;2023-02-13T13:49:52;22.00;;;17.83;;
14096;SDS011;7125;48.106;11.544;2023-02-13T13:52:22;27.00;;;18.67;;
14096;SDS011;7125;48.106;11.544;2023-02-13T13:54:51;26.43;;;18.00;;
14096;SDS011;7125;48.106;11.544;2023-02-13T13:57:19;23.73;;;18.80;;
14096;SDS011;7125;48.106;11.544;2023-02-13T13:59:58;26.47;;;18.13;;
14096;SDS011;7125;48.106;11.544;2023-02-13T14:02:45;24.43;;;17.60;;
14096;SDS011;7125;48.106;11.544;2023-02-13T14:05:24;21.97;;;16.10;;
14096;SDS011;7125;48.106;11.544;2023-02-13T14:07:54;27.03;;;17.63;;
14096;SDS011;7125;48.106;11.544;2023-02-13T14:13:33;24.63;;;15.37;;
14096;SDS011;7125;48.106;11.544;2023-02-13T14:16:02;24.93;;;18.43;;
14096;SDS011;7125;48.106;11.544;2023-02-13T14:18:32;25.43;;;16.63;;
14096;SDS011;7125;48.106;11.544;2023-02-13T14:21:00;22.43;;;15.20;;
14096;SDS011;7125;48.106;11.544;2023-02-13T14:23:31;21.10;;;14.87;;
14096;SDS011;7125;48.106;11.544;2023-02-13T14:26:24;20.90;;;15.03;;
14096;SDS011;7125;48.106;11.544;2023-02-13T14:28:58;22.33;;;15.53;;
14096;SDS011;7125;48.106;11.544;2023-02-13T14:31:51;21.53;;;15.53;;
14096;SDS011;7125;48.106;11.544;2023-02-13T14:34:26;18.27;;;14.97;;
14096;SDS011;7125;48.106;11.544;2023-02-13T14:37:16;20.47;;;15.97;;
14096;SDS011;7125;48.106;11.544;2023-02-13T14:43:07;22.27;;;15.73;;
14096;SDS011;7125;48.106;11.544;2023-02-13T14:45:52;20.50;;;15.80;;
14096;SDS011;7125;48.106;11.544;2023-02-13T14:48:23;19.93;;;14.13;;
14096;SDS011;7125;48.106;11.544;2023-02-13T14:51:00;18.73;;;14.63;;
14096;SDS011;7125;48.106;11.544;2023-02-13T14:53:30;20.47;;;15.17;;
14096;SDS011;7125;48.106;11.544;2023-02-13T14:56:12;17.87;;;15.57;;
14096;SDS011;7125;48.106;11.544;2023-02-13T14:58:44;21.40;;;14.53;;
14096;SDS011;7125;48.106;11.544;2023-02-13T15:01:17;18.93;;;14.23;;
14096;SDS011;7125;48.106;11.544;2023-02-13T15:03:50;18.90;;;15.23;;
14096;SDS011;7125;48.106;11.544;2023-02-13T15:06:26;21.20;;;14.30;;
14096;SDS011;7125;48.106;11.544;2023-02-13T15:08:58;19.50;;;15.13;;
14096;SDS011;7125;48.106;11.544;2023-02-13T15:11:31;17.43;;;13.47;;
14096;SDS011;7125;48.106;11.544;2023-02-13T15:14:18;20.23;;;16.00;;
14096;SDS011;7125;48.106;11.544;2023-02-13T15:16:49;20.60;;;16.53;;
14096;SDS011;7125;48.106;11.544;2023-02-13T15:19:22;20.87;;;15.10;;
14096;SDS011;7125;48.106;11.544;2023-02-13T15:21:52;18.73;;;14.50;;
14096;SDS011;7125;48.106;11.544;2023-02-13T15:24:22;19.77;;;14.97;;
14096;SDS011;7125;48.106;11.544;2023-02-13T15:26:54;20.73;;;15.57;;
14096;SDS011;7125;48.106;11.544;2023-02-13T15:29:28;22.37;;;16.63;;
14096;SDS011;7125;48.106;11.544;2023-02-13T15:31:58;23.63;;;16.20;;
14096;SDS011;7125;48.106;11.544;2023-02-13T15:34:26;22.80;;;15.73;;
14096;SDS011;7125;48.106;11.544;2023-02-13T15:36:55;21.17;;;15.57;;
14096;SDS011;7125;48.106;11.544;2023-02-13T15:39:24;20.03;;;16.13;;
14096;SDS011;7125;48.106;11.544;2023-02-13T15:41:53;19.10;;;14.93;;
14096;SDS011;7125;48.106;11.544;2023-02-13T15:44:24;22.07;;;14.70;;
14096;SDS011;7125;48.106;11.544;2023-02-13T15:46:54;18.37;;;14.30;;
14096;SDS011;7125;48.106;11.544;2023-02-13T15:49:27;21.17;;;16.40;;
14096;SDS011;7125;48.106;11.544;2023-02-13T15:52:04;23.60;;;16.47;;
14096;SDS011;7125;48.106;11.544;2023-02-13T15:54:33;20.07;;;15.33;;